createdAt,value
2023-04-05T00:00:43.527Z,97317.81
2023-04-05T00:01:50.411Z,97319.03
2023-04-05T00:02:53.093Z,97317.94
2023-04-05T00:03:58.718Z,97320.09
2023-04-05T00:05:00.952Z,97319.13
2023-04-05T00:06:05.670Z,97317.38
2023-04-05T00:07:08.806Z,97320.38
2023-04-05T00:08:18.561Z,97311.31
2023-04-05T00:09:21.062Z,97307.94
2023-04-05T00:10:22.905Z,97311.31
2023-04-05T00:11:25.949Z,97316.06
2023-04-05T00:12:27.727Z,97307.41
2023-04-05T00:13:30.868Z,97315.00
2023-04-05T00:14:32.666Z,97313.88
2023-04-05T00:15:34.503Z,97309.53
2023-04-05T00:16:36.850Z,97305.34
2023-04-05T00:17:38.745Z,97301.69
2023-04-05T00:18:46.382Z,97298.16
2023-04-05T00:19:51.843Z,97300.75
2023-04-05T00:20:54.262Z,97296.25
2023-04-05T00:21:56.065Z,97305.47
2023-04-05T00:22:57.840Z,97302.75
2023-04-05T00:24:00.150Z,97302.56
2023-04-05T00:25:02.739Z,97300.84
2023-04-05T00:26:04.650Z,97291.59
2023-04-05T00:27:06.449Z,97291.38
2023-04-05T00:28:08.282Z,97293.28
2023-04-05T00:29:10.051Z,97293.53
2023-04-05T00:30:12.227Z,97296.28
2023-04-05T00:31:14.064Z,97292.88
2023-04-05T00:32:15.913Z,97293.41
2023-04-05T00:33:17.699Z,97294.09
2023-04-05T00:34:19.493Z,97288.13
2023-04-05T00:35:21.636Z,97291.94
2023-04-05T00:36:23.525Z,97288.25
2023-04-05T00:37:25.503Z,97287.47
2023-04-05T00:38:27.273Z,97288.41
2023-04-05T00:39:29.076Z,97284.47
2023-04-05T00:40:30.945Z,97285.44
2023-04-05T00:41:32.790Z,97286.94
2023-04-05T00:42:34.654Z,97290.94
2023-04-05T00:43:37.378Z,97286.84
2023-04-05T00:44:39.165Z,97287.94
2023-04-05T00:45:42.798Z,97281.03
2023-04-05T00:46:44.662Z,97279.84
2023-04-05T00:47:46.540Z,97289.97
2023-04-05T00:48:48.409Z,97286.03
2023-04-05T00:49:50.256Z,97287.00
2023-04-05T00:50:52.763Z,97282.00
2023-04-05T00:51:55.067Z,97283.59
2023-04-05T00:52:57.726Z,97282.25
2023-04-05T00:54:00.816Z,97283.34
2023-04-05T00:55:02.717Z,97285.81
2023-04-05T00:56:04.495Z,97285.13
2023-04-05T00:57:07.601Z,97286.75
2023-04-05T00:58:10.602Z,97288.97
2023-04-05T00:59:12.638Z,97287.75
2023-04-05T01:00:15.648Z,97291.00
2023-04-05T01:01:18.908Z,97285.56
2023-04-05T01:02:26.428Z,97286.66
2023-04-05T01:03:31.027Z,97288.84
2023-04-05T01:04:37.101Z,97291.97
2023-04-05T01:05:38.948Z,97292.91
2023-04-05T01:06:44.895Z,97286.16
2023-04-05T01:07:51.455Z,97288.84
2023-04-05T01:09:09.419Z,97285.06
2023-04-05T01:10:13.862Z,97290.31
2023-04-05T01:11:16.656Z,97291.28
2023-04-05T01:12:19.176Z,97281.53
2023-04-05T01:13:21.291Z,97282.88
2023-04-05T01:14:23.034Z,97276.78
2023-04-05T01:15:24.831Z,97280.97
2023-04-05T01:16:27.459Z,97278.13
2023-04-05T01:17:37.043Z,97275.97
2023-04-05T01:18:39.042Z,97283.44
2023-04-05T01:19:42.446Z,97279.22
2023-04-05T01:20:53.239Z,97285.06
2023-04-05T01:22:18.012Z,97277.31
2023-04-05T01:23:45.962Z,97278.81
2023-04-05T01:25:14.866Z,97286.69
2023-04-05T01:26:25.989Z,97273.28
2023-04-05T01:27:44.129Z,97278.28
2023-04-05T01:28:46.142Z,97268.00
2023-04-05T01:30:04.562Z,97268.00
2023-04-05T01:31:12.361Z,97272.47
2023-04-05T01:32:17.130Z,97282.06
2023-04-05T01:33:37.921Z,97277.09
2023-04-05T01:34:52.021Z,97278.00
2023-04-05T01:36:01.729Z,97288.31
2023-04-05T01:37:06.422Z,97276.16
2023-04-05T01:38:11.247Z,97282.91
2023-04-05T01:39:15.029Z,97285.47
2023-04-05T01:40:17.072Z,97284.13
2023-04-05T01:41:18.965Z,97276.03
2023-04-05T01:42:27.614Z,97284.28
2023-04-05T01:43:29.558Z,97277.50
2023-04-05T01:44:31.384Z,97277.78
2023-04-05T01:45:33.274Z,97281.56
2023-04-05T01:46:35.191Z,97280.88
2023-04-05T01:47:36.972Z,97281.00
2023-04-05T01:48:38.797Z,97281.28
2023-04-05T01:49:40.592Z,97280.34
2023-04-05T01:50:42.689Z,97277.53
2023-04-05T01:51:44.690Z,97279.13
2023-04-05T01:52:46.620Z,97276.16
2023-04-05T01:53:48.386Z,97278.59
2023-04-05T01:54:50.186Z,97281.03
2023-04-05T01:55:52.037Z,97275.47
2023-04-05T01:56:53.788Z,97281.59
2023-04-05T01:57:56.847Z,97277.91
2023-04-05T01:58:58.772Z,97276.69
2023-04-05T02:00:00.672Z,97279.81
2023-04-05T02:01:02.545Z,97284.97
2023-04-05T02:02:04.413Z,97279.16
2023-04-05T02:03:06.652Z,97287.91
2023-04-05T02:04:08.426Z,97278.59
2023-04-05T02:05:10.214Z,97285.50
2023-04-05T02:06:12.073Z,97279.28
2023-04-05T02:07:13.919Z,97283.31
2023-04-05T02:08:16.208Z,97283.72
2023-04-05T02:09:18.020Z,97287.94
2023-04-05T02:10:20.451Z,97286.72
2023-04-05T02:11:22.218Z,97281.59
2023-04-05T02:12:24.098Z,97277.91
2023-04-05T02:13:26.845Z,97278.72
2023-04-05T02:14:29.085Z,97281.72
2023-04-05T02:15:30.880Z,97278.19
2023-04-05T02:16:35.215Z,97283.31
2023-04-05T02:17:40.323Z,97276.41
2023-04-05T02:18:42.248Z,97281.31
2023-04-05T02:19:46.494Z,97271.81
2023-04-05T02:20:50.238Z,97276.97
2023-04-05T02:21:53.941Z,97280.50
2023-04-05T02:22:56.117Z,97271.94
2023-04-05T02:23:57.883Z,97282.22
2023-04-05T02:24:59.639Z,97279.81
2023-04-05T02:26:01.436Z,97277.50
2023-04-05T02:27:03.260Z,97279.41
2023-04-05T02:28:05.036Z,97271.13
2023-04-05T02:29:06.946Z,97274.81
2023-04-05T02:30:09.703Z,97276.44
2023-04-05T02:31:12.305Z,97279.69
2023-04-05T02:32:14.143Z,97281.31
2023-04-05T02:33:15.933Z,97287.53
2023-04-05T02:34:17.772Z,97283.19
2023-04-05T02:35:21.480Z,97284.53
2023-04-05T02:36:23.259Z,97291.31
2023-04-05T02:37:26.394Z,97285.91
2023-04-05T02:38:28.229Z,97281.81
2023-04-05T02:39:30.103Z,97287.94
2023-04-05T02:40:32.210Z,97285.22
2023-04-05T02:41:33.957Z,97283.34
2023-04-05T02:42:36.466Z,97288.06
2023-04-05T02:43:38.742Z,97286.31
2023-04-05T02:44:40.950Z,97281.84
2023-04-05T02:45:43.566Z,97280.47
2023-04-05T02:46:46.573Z,97285.31
2023-04-05T02:47:48.895Z,97291.25
2023-04-05T02:48:50.753Z,97294.38
2023-04-05T02:49:52.586Z,97288.44
2023-04-05T02:50:55.431Z,97286.56
2023-04-05T02:51:57.263Z,97285.31
2023-04-05T02:52:59.040Z,97289.91
2023-04-05T02:54:02.058Z,97290.84
2023-04-05T02:55:05.596Z,97286.50
2023-04-05T02:56:08.054Z,97287.88
2023-04-05T02:57:11.857Z,97294.25
2023-04-05T02:58:14.572Z,97280.47
2023-04-05T02:59:17.975Z,97294.78
2023-04-05T03:00:20.247Z,97288.44
2023-04-05T03:01:22.862Z,97289.38
2023-04-05T03:02:24.694Z,97287.47
2023-04-05T03:03:26.581Z,97286.56
2023-04-05T03:04:28.545Z,97286.13
2023-04-05T03:05:30.615Z,97290.88
2023-04-05T03:06:32.421Z,97294.81
2023-04-05T03:07:35.813Z,97286.16
2023-04-05T03:08:39.093Z,97286.53
2023-04-05T03:09:40.930Z,97284.25
2023-04-05T03:10:45.185Z,97282.47
2023-04-05T03:11:47.132Z,97278.03
2023-04-05T03:12:48.924Z,97289.91
2023-04-05T03:13:50.723Z,97290.59
2023-04-05T03:14:52.503Z,97279.94
2023-04-05T03:15:55.260Z,97282.63
2023-04-05T03:16:57.376Z,97274.50
2023-04-05T03:17:59.236Z,97280.16
2023-04-05T03:19:01.057Z,97274.09
2023-04-05T03:20:03.941Z,97278.03
2023-04-05T03:21:06.275Z,97272.34
2023-04-05T03:22:08.135Z,97273.69
2023-04-05T03:23:09.971Z,97283.56
2023-04-05T03:24:11.803Z,97277.19
2023-04-05T03:25:13.515Z,97279.94
2023-04-05T03:26:15.751Z,97273.28
2023-04-05T03:27:19.141Z,97282.63
2023-04-05T03:28:20.910Z,97277.19
2023-04-05T03:29:22.687Z,97271.66
2023-04-05T03:30:24.448Z,97270.31
2023-04-05T03:31:26.330Z,97269.09
2023-04-05T03:32:28.165Z,97276.28
2023-04-05T03:33:29.934Z,97272.50
2023-04-05T03:34:31.698Z,97269.78
2023-04-05T03:35:33.628Z,97268.28
2023-04-05T03:36:42.110Z,97272.63
2023-04-05T03:37:43.936Z,97267.09
2023-04-05T03:38:48.014Z,97266.41
2023-04-05T03:39:49.880Z,97265.72
2023-04-05T03:40:51.724Z,97269.09
2023-04-05T03:41:53.604Z,97263.16
2023-04-05T03:42:55.387Z,97272.34
2023-04-05T03:43:57.122Z,97271.94
2023-04-05T03:45:00.263Z,97274.94
2023-04-05T03:46:02.063Z,97271.28
2023-04-05T03:47:03.938Z,97267.91
2023-04-05T03:48:05.893Z,97262.88
2023-04-05T03:49:07.953Z,97270.72
2023-04-05T03:50:09.843Z,97267.47
2023-04-05T03:51:12.040Z,97272.91
2023-04-05T03:52:13.867Z,97269.50
2023-04-05T03:53:19.247Z,97276.81
2023-04-05T03:54:22.198Z,97268.00
2023-04-05T03:55:24.119Z,97273.13
2023-04-05T03:56:26.005Z,97275.97
2023-04-05T03:57:29.517Z,97269.47
2023-04-05T03:58:31.280Z,97271.38
2023-04-05T03:59:33.244Z,97270.69
2023-04-05T04:00:35.068Z,97270.69
2023-04-05T04:01:37.221Z,97272.31
2023-04-05T04:02:39.049Z,97277.03
2023-04-05T04:03:40.855Z,97271.63
2023-04-05T04:04:42.650Z,97269.72
2023-04-05T04:05:44.770Z,97266.91
2023-04-05T04:06:47.125Z,97266.63
2023-04-05T04:07:49.034Z,97263.94
2023-04-05T04:08:50.966Z,97263.38
2023-04-05T04:09:55.716Z,97262.84
2023-04-05T04:10:57.596Z,97265.81
2023-04-05T04:11:59.425Z,97269.47
2023-04-05T04:13:01.249Z,97272.03
2023-04-05T04:14:03.120Z,97268.78
2023-04-05T04:15:06.050Z,97269.47
2023-04-05T04:16:07.924Z,97269.19
2023-04-05T04:17:09.726Z,97272.44
2023-04-05T04:18:12.292Z,97270.69
2023-04-05T04:19:14.044Z,97264.34
2023-04-05T04:20:16.082Z,97271.22
2023-04-05T04:21:19.341Z,97268.81
2023-04-05T04:22:21.196Z,97260.41
2023-04-05T04:23:23.172Z,97266.22
2023-04-05T04:24:27.332Z,97263.66
2023-04-05T04:25:31.158Z,97264.19
2023-04-05T04:26:37.766Z,97267.47
2023-04-05T04:27:42.161Z,97270.41
2023-04-05T04:28:44.057Z,97259.47
2023-04-05T04:29:48.888Z,97265.28
2023-04-05T04:30:51.244Z,97266.22
2023-04-05T04:31:53.305Z,97269.59
2023-04-05T04:32:55.487Z,97274.63
2023-04-05T04:33:58.053Z,97268.81
2023-04-05T04:34:59.855Z,97269.34
2023-04-05T04:36:07.397Z,97261.06
2023-04-05T04:37:09.238Z,97265.81
2023-04-05T04:38:18.800Z,97261.22
2023-04-05T04:39:23.108Z,97264.88
2023-04-05T04:40:26.134Z,97263.34
2023-04-05T04:41:28.003Z,97270.13
2023-04-05T04:42:33.960Z,97265.00
2023-04-05T04:43:43.099Z,97269.84
2023-04-05T04:44:44.933Z,97263.66
2023-04-05T04:45:50.312Z,97265.72
2023-04-05T04:46:55.104Z,97261.25
2023-04-05T04:47:56.880Z,97263.50
2023-04-05T04:48:58.697Z,97267.69
2023-04-05T04:50:00.529Z,97259.31
2023-04-05T04:51:02.839Z,97259.19
2023-04-05T04:52:04.760Z,97259.75
2023-04-05T04:53:07.026Z,97256.88
2023-04-05T04:54:08.898Z,97263.38
2023-04-05T04:55:13.882Z,97266.63
2023-04-05T04:56:16.258Z,97259.59
2023-04-05T04:57:18.007Z,97268.00
2023-04-05T04:58:19.814Z,97265.31
2023-04-05T04:59:21.678Z,97266.38
2023-04-05T05:00:24.421Z,97261.50
2023-04-05T05:01:26.766Z,97258.94
2023-04-05T05:02:31.002Z,97261.63
2023-04-05T05:03:34.877Z,97268.41
2023-04-05T05:04:36.901Z,97260.56
2023-04-05T05:05:45.443Z,97258.25
2023-04-05T05:06:47.325Z,97264.19
2023-04-05T05:07:49.154Z,97264.06
2023-04-05T05:08:51.292Z,97264.06
2023-04-05T05:09:54.577Z,97255.44
2023-04-05T05:10:56.855Z,97263.38
2023-04-05T05:11:59.755Z,97259.22
2023-04-05T05:13:01.923Z,97264.06
2023-04-05T05:14:03.725Z,97256.22
2023-04-05T05:15:05.928Z,97262.72
2023-04-05T05:16:09.303Z,97263.16
2023-04-05T05:17:11.228Z,97267.75
2023-04-05T05:18:13.078Z,97265.03
2023-04-05T05:19:14.823Z,97265.03
2023-04-05T05:20:16.657Z,97272.59
2023-04-05T05:21:18.482Z,97259.06
2023-04-05T05:22:20.243Z,97264.03
2023-04-05T05:23:24.126Z,97263.78
2023-04-05T05:24:26.599Z,97265.28
2023-04-05T05:25:28.524Z,97267.97
2023-04-05T05:26:31.264Z,97265.16
2023-04-05T05:27:34.222Z,97264.19
2023-04-05T05:28:37.379Z,97262.34
2023-04-05T05:29:39.194Z,97269.63
2023-04-05T05:30:41.417Z,97269.91
2023-04-05T05:31:43.384Z,97264.75
2023-04-05T05:32:45.154Z,97265.56
2023-04-05T05:33:49.796Z,97267.22
2023-04-05T05:34:51.623Z,97267.22
2023-04-05T05:35:53.503Z,97266.09
2023-04-05T05:36:55.845Z,97266.78
2023-04-05T05:37:57.681Z,97267.75
2023-04-05T05:38:59.664Z,97273.44
2023-04-05T05:40:01.462Z,97272.06
2023-04-05T05:41:03.327Z,97269.91
2023-04-05T05:42:05.268Z,97272.50
2023-04-05T05:43:07.267Z,97270.72
2023-04-05T05:44:09.112Z,97278.31
2023-04-05T05:45:11.191Z,97278.44
2023-04-05T05:46:13.277Z,97274.25
2023-04-05T05:47:15.152Z,97275.59
2023-04-05T05:48:16.979Z,97279.25
2023-04-05T05:49:18.824Z,97278.84
2023-04-05T05:50:20.934Z,97272.22
2023-04-05T05:51:22.921Z,97275.63
2023-04-05T05:52:25.094Z,97274.78
2023-04-05T05:53:26.957Z,97269.38
2023-04-05T05:54:28.728Z,97276.13
2023-04-05T05:55:30.888Z,97268.16
2023-04-05T05:56:32.698Z,97268.84
2023-04-05T05:57:34.472Z,97267.91
2023-04-05T05:58:37.028Z,97264.13
2023-04-05T05:59:38.930Z,97277.38
2023-04-05T06:00:40.978Z,97273.47
2023-04-05T06:01:46.774Z,97273.59
2023-04-05T06:02:49.345Z,97274.25
2023-04-05T06:03:51.409Z,97272.38
2023-04-05T06:04:53.410Z,97279.41
2023-04-05T06:05:56.526Z,97281.97
2023-04-05T06:06:58.402Z,97274.81
2023-04-05T06:08:00.241Z,97276.41
2023-04-05T06:09:02.031Z,97277.78
2023-04-05T06:10:07.925Z,97280.34
2023-04-05T06:11:17.434Z,97271.56
2023-04-05T06:12:21.327Z,97274.53
2023-04-05T06:13:23.153Z,97277.09
2023-04-05T06:14:25.383Z,97271.41
2023-04-05T06:15:27.487Z,97273.28
2023-04-05T06:16:31.166Z,97264.50
2023-04-05T06:17:34.385Z,97268.03
2023-04-05T06:18:36.678Z,97271.53
2023-04-05T06:19:38.580Z,97262.06
2023-04-05T06:20:44.728Z,97273.72
2023-04-05T06:21:46.618Z,97269.75
2023-04-05T06:22:48.476Z,97269.91
2023-04-05T06:23:50.270Z,97268.00
2023-04-05T06:24:52.160Z,97269.38
2023-04-05T06:25:53.980Z,97264.75
2023-04-05T06:26:55.807Z,97269.34
2023-04-05T06:27:57.517Z,97260.22
2023-04-05T06:28:59.260Z,97259.69
2023-04-05T06:30:01.111Z,97263.47
2023-04-05T06:31:02.889Z,97264.81
2023-04-05T06:32:04.810Z,97270.63
2023-04-05T06:33:06.679Z,97266.97
2023-04-05T06:34:08.536Z,97262.50
2023-04-05T06:35:10.541Z,97262.06
2023-04-05T06:36:12.723Z,97261.09
2023-04-05T06:37:14.710Z,97265.19
2023-04-05T06:38:16.488Z,97262.44
2023-04-05T06:39:18.460Z,97267.59
2023-04-05T06:40:21.064Z,97263.09
2023-04-05T06:41:23.299Z,97257.97
2023-04-05T06:42:26.474Z,97253.91
2023-04-05T06:43:29.642Z,97264.88
2023-04-05T06:44:31.417Z,97258.78
2023-04-05T06:45:33.329Z,97261.19
2023-04-05T06:46:35.254Z,97259.03
2023-04-05T06:47:37.834Z,97258.91
2023-04-05T06:48:40.328Z,97268.09
2023-04-05T06:49:42.133Z,97254.09
2023-04-05T06:50:43.953Z,97262.22
2023-04-05T06:51:45.733Z,97257.22
2023-04-05T06:52:47.558Z,97254.69
2023-04-05T06:53:49.372Z,97258.72
2023-04-05T06:54:51.531Z,97260.63
2023-04-05T06:55:57.042Z,97265.13
2023-04-05T06:57:01.682Z,97260.94
2023-04-05T06:58:03.773Z,97260.69
2023-04-05T06:59:05.912Z,97264.75
2023-04-05T07:00:14.358Z,97270.84
2023-04-05T07:01:17.692Z,97265.75
2023-04-05T07:02:20.030Z,97266.81
2023-04-05T07:03:21.831Z,97266.53
2023-04-05T07:04:23.658Z,97261.09
2023-04-05T07:05:25.590Z,97265.97
2023-04-05T07:06:27.438Z,97256.72
2023-04-05T07:07:29.245Z,97262.13
2023-04-05T07:08:32.083Z,97259.88
2023-04-05T07:09:33.944Z,97257.28
2023-04-05T07:10:35.972Z,97260.28
2023-04-05T07:11:39.283Z,97259.34
2023-04-05T07:12:41.438Z,97257.69
2023-04-05T07:13:43.277Z,97257.78
2023-04-05T07:14:45.142Z,97259.34
2023-04-05T07:15:47.386Z,97257.97
2023-04-05T07:16:49.838Z,97256.47
2023-04-05T07:17:51.908Z,97257.50
2023-04-05T07:18:56.373Z,97260.28
2023-04-05T07:19:58.129Z,97258.63
2023-04-05T07:21:04.386Z,97254.22
2023-04-05T07:22:06.254Z,97260.25
2023-04-05T07:23:08.082Z,97252.91
2023-04-05T07:24:09.944Z,97258.34
2023-04-05T07:25:12.640Z,97265.81
2023-04-05T07:26:14.467Z,97256.97
2023-04-05T07:27:16.355Z,97254.59
2023-04-05T07:28:18.200Z,97259.16
2023-04-05T07:29:20.038Z,97266.75
2023-04-05T07:30:21.845Z,97259.41
2023-04-05T07:31:23.627Z,97257.47
2023-04-05T07:32:25.661Z,97257.31
2023-04-05T07:33:28.050Z,97257.41
2023-04-05T07:34:29.901Z,97264.19
2023-04-05T07:35:31.812Z,97262.94
2023-04-05T07:36:35.911Z,97258.81
2023-04-05T07:37:38.903Z,97259.03
2023-04-05T07:38:41.605Z,97262.63
2023-04-05T07:39:43.500Z,97260.25
2023-04-05T07:40:45.207Z,97259.22
2023-04-05T07:41:47.025Z,97259.06
2023-04-05T07:42:48.789Z,97260.19
2023-04-05T07:43:50.569Z,97260.19
2023-04-05T07:44:52.327Z,97256.50
2023-04-05T07:46:02.065Z,97252.81
2023-04-05T07:47:04.303Z,97255.56
2023-04-05T07:48:06.359Z,97255.56
2023-04-05T07:49:08.165Z,97254.72
2023-04-05T07:50:11.998Z,97257.81
2023-04-05T07:51:13.829Z,97257.38
2023-04-05T07:52:15.623Z,97253.22
2023-04-05T07:53:17.429Z,97252.63
2023-04-05T07:54:19.209Z,97258.97
2023-04-05T07:55:21.661Z,97258.22
2023-04-05T07:56:24.436Z,97253.41
2023-04-05T07:57:26.259Z,97256.34
2023-04-05T07:58:30.705Z,97252.63
2023-04-05T07:59:32.501Z,97253.63
2023-04-05T08:00:34.350Z,97257.56
2023-04-05T08:01:36.370Z,97258.53
2023-04-05T08:02:38.294Z,97259.06
2023-04-05T08:03:40.515Z,97252.47
2023-04-05T08:04:42.455Z,97253.94
2023-04-05T08:05:44.327Z,97257.16
2023-04-05T08:06:47.799Z,97249.28
2023-04-05T08:07:49.564Z,97249.09
2023-04-05T08:08:51.378Z,97250.22
2023-04-05T08:09:57.712Z,97252.94
2023-04-05T08:10:59.502Z,97249.56
2023-04-05T08:12:02.970Z,97251.97
2023-04-05T08:13:05.945Z,97248.41
2023-04-05T08:14:07.824Z,97251.84
2023-04-05T08:15:09.866Z,97251.22
2023-04-05T08:16:11.886Z,97247.53
2023-04-05T08:17:15.049Z,97253.03
2023-04-05T08:18:17.017Z,97248.84
2023-04-05T08:19:18.867Z,97248.22
2023-04-05T08:20:20.802Z,97248.72
2023-04-05T08:21:23.026Z,97244.38
2023-04-05T08:22:28.228Z,97246.03
2023-04-05T08:23:30.381Z,97245.41
2023-04-05T08:24:32.222Z,97251.88
2023-04-05T08:25:34.455Z,97248.16
2023-04-05T08:26:36.366Z,97247.69
2023-04-05T08:27:38.184Z,97245.75
2023-04-05T08:28:40.105Z,97248.69
2023-04-05T08:29:41.918Z,97245.44
2023-04-05T08:30:43.813Z,97250.47
2023-04-05T08:31:45.789Z,97247.41
2023-04-05T08:32:47.589Z,97242.06
2023-04-05T08:33:49.439Z,97243.38
2023-04-05T08:34:51.312Z,97252.44
2023-04-05T08:35:53.392Z,97247.75
2023-04-05T08:36:58.417Z,97252.44
2023-04-05T08:38:00.192Z,97250.81
2023-04-05T08:39:02.098Z,97245.00
2023-04-05T08:40:04.800Z,97250.97
2023-04-05T08:41:21.181Z,97245.47
2023-04-05T08:42:37.060Z,97246.59
2023-04-05T08:43:58.247Z,97245.63
2023-04-05T08:45:03.632Z,97247.53
2023-04-05T08:46:07.744Z,97238.47
2023-04-05T08:47:15.245Z,97242.50
2023-04-05T08:48:17.766Z,97250.25
2023-04-05T08:49:19.585Z,97248.50
2023-04-05T08:50:22.040Z,97250.91
2023-04-05T08:51:24.533Z,97244.13
2023-04-05T08:52:26.444Z,97239.31
2023-04-05T08:53:28.398Z,97238.34
2023-04-05T08:54:30.232Z,97239.97
2023-04-05T08:55:32.244Z,97235.28
2023-04-05T08:56:35.352Z,97240.28
2023-04-05T08:57:39.182Z,97235.59
2023-04-05T08:58:41.812Z,97241.09
2023-04-05T08:59:44.849Z,97236.38
2023-04-05T09:00:46.937Z,97239.31
2023-04-05T09:01:50.457Z,97233.84
2023-04-05T09:02:57.128Z,97228.81
2023-04-05T09:04:05.645Z,97231.53
2023-04-05T09:05:09.286Z,97231.50
2023-04-05T09:06:13.024Z,97231.03
2023-04-05T09:07:15.293Z,97235.34
2023-04-05T09:08:17.400Z,97231.31
2023-04-05T09:09:21.163Z,97227.13
2023-04-05T09:10:23.567Z,97234.06
2023-04-05T09:11:25.892Z,97234.25
2023-04-05T09:12:28.445Z,97229.84
2023-04-05T09:13:31.162Z,97224.31
2023-04-05T09:14:34.373Z,97228.84
2023-04-05T09:15:39.657Z,97223.16
2023-04-05T09:16:42.598Z,97225.56
2023-04-05T09:17:44.614Z,97223.31
2023-04-05T09:18:46.824Z,97232.34
2023-04-05T09:19:51.448Z,97225.69
2023-04-05T09:20:56.592Z,97231.41
2023-04-05T09:22:02.306Z,97225.81
2023-04-05T09:23:04.169Z,97228.03
2023-04-05T09:24:06.514Z,97224.41
2023-04-05T09:25:08.547Z,97227.47
2023-04-05T09:26:19.900Z,97226.63
2023-04-05T09:27:21.776Z,97229.19
2023-04-05T09:28:23.572Z,97226.22
2023-04-05T09:29:31.490Z,97227.06
2023-04-05T09:30:33.763Z,97225.44
2023-04-05T09:31:36.674Z,97228.16
2023-04-05T09:32:46.940Z,97224.50
2023-04-05T09:33:48.759Z,97223.28
2023-04-05T09:34:53.977Z,97210.94
2023-04-05T09:35:56.182Z,97213.84
2023-04-05T09:36:58.075Z,97220.59
2023-04-05T09:38:00.766Z,97218.56
2023-04-05T09:39:10.028Z,97213.63
2023-04-05T09:40:14.716Z,97212.38
2023-04-05T09:41:16.586Z,97222.84
2023-04-05T09:42:19.570Z,97215.69
2023-04-05T09:43:40.262Z,97215.34
2023-04-05T09:45:01.510Z,97209.44
2023-04-05T09:46:03.437Z,97207.78
2023-04-05T09:47:18.252Z,97209.19
2023-04-05T09:48:20.553Z,97215.13
2023-04-05T09:49:32.672Z,97206.59
2023-04-05T09:50:34.585Z,97214.84
2023-04-05T09:51:39.631Z,97208.16
2023-04-05T09:52:41.573Z,97207.59
2023-04-05T09:54:00.187Z,97206.16
2023-04-05T09:55:03.376Z,97205.28
2023-04-05T09:56:14.005Z,97199.72
2023-04-05T09:57:16.291Z,97199.88
2023-04-05T09:58:21.760Z,97202.47
2023-04-05T09:59:23.735Z,97203.66
2023-04-05T10:00:25.622Z,97201.63
2023-04-05T10:01:29.097Z,97200.44
2023-04-05T10:02:38.223Z,97209.31
2023-04-05T10:03:49.753Z,97200.16
2023-04-05T10:04:51.875Z,97199.25
2023-04-05T10:05:56.942Z,97199.00
2023-04-05T10:06:59.072Z,97195.81
2023-04-05T10:08:02.285Z,97199.38
2023-04-05T10:09:05.316Z,97195.81
2023-04-05T10:10:07.271Z,97189.78
2023-04-05T10:11:10.873Z,97197.25
2023-04-05T10:12:24.340Z,97194.06
2023-04-05T10:13:26.299Z,97196.56
2023-04-05T10:14:28.072Z,97187.28
2023-04-05T10:15:31.840Z,97194.44
2023-04-05T10:16:37.052Z,97192.34
2023-04-05T10:17:45.834Z,97186.16
2023-04-05T10:18:50.917Z,97188.56
2023-04-05T10:20:01.005Z,97186.16
2023-04-05T10:21:02.897Z,97188.53
2023-04-05T10:22:07.913Z,97183.59
2023-04-05T10:23:12.616Z,97180.84
2023-04-05T10:24:14.440Z,97173.81
2023-04-05T10:25:16.145Z,97174.09
2023-04-05T10:26:36.857Z,97174.59
2023-04-05T10:27:48.822Z,97173.69
2023-04-05T10:28:57.090Z,97173.75
2023-04-05T10:30:04.955Z,97164.66
2023-04-05T10:31:37.224Z,97170.03
2023-04-05T10:32:46.365Z,97169.44
2023-04-05T10:33:50.290Z,97173.16
2023-04-05T10:34:57.974Z,97172.81
2023-04-05T10:36:10.277Z,97170.28
2023-04-05T10:37:23.038Z,97163.53
2023-04-05T10:38:34.113Z,97164.94
2023-04-05T10:39:41.764Z,97167.72
2023-04-05T10:40:46.038Z,97169.75
2023-04-05T10:41:48.843Z,97173.19
2023-04-05T10:42:50.865Z,97167.53
2023-04-05T10:43:57.205Z,97173.97
2023-04-05T10:45:02.605Z,97174.97
2023-04-05T10:46:04.894Z,97169.09
2023-04-05T10:47:07.448Z,97166.03
2023-04-05T10:48:27.785Z,97162.63
2023-04-05T10:49:32.606Z,97158.06
2023-04-05T10:50:35.617Z,97170.94
2023-04-05T10:51:38.056Z,97159.47
2023-04-05T10:52:41.040Z,97157.50
2023-04-05T10:53:44.127Z,97165.75
2023-04-05T10:54:45.991Z,97158.88
2023-04-05T10:55:48.135Z,97161.13
2023-04-05T10:56:50.804Z,97160.94
2023-04-05T10:57:54.752Z,97153.72
2023-04-05T10:58:57.075Z,97156.06
2023-04-05T10:59:59.999Z,97149.66
2023-04-05T11:01:02.593Z,97154.28
2023-04-05T11:02:04.545Z,97145.69
2023-04-05T11:03:06.990Z,97147.66
2023-04-05T11:04:13.114Z,97138.41
2023-04-05T11:05:32.450Z,97144.19
2023-04-05T11:06:34.465Z,97138.41
2023-04-05T11:07:44.434Z,97132.34
2023-04-05T11:08:46.994Z,97140.56
2023-04-05T11:09:55.577Z,97134.84
2023-04-05T11:10:57.541Z,97140.59
2023-04-05T11:11:59.358Z,97139.63
2023-04-05T11:13:01.045Z,97142.28
2023-04-05T11:14:17.156Z,97135.94
2023-04-05T11:15:28.134Z,97139.09
2023-04-05T11:16:40.088Z,97129.19
2023-04-05T11:17:41.896Z,97138.81
2023-04-05T11:18:47.954Z,97141.84
2023-04-05T11:19:52.592Z,97138.03
2023-04-05T11:21:05.783Z,97143.38
2023-04-05T11:22:07.570Z,97144.38
2023-04-05T11:23:13.415Z,97135.81
2023-04-05T11:24:19.147Z,97140.13
2023-04-05T11:25:25.087Z,97132.09
2023-04-05T11:26:53.190Z,97131.00
2023-04-05T11:28:01.347Z,97140.13
2023-04-05T11:29:03.269Z,97132.13
2023-04-05T11:30:06.420Z,97134.69
2023-04-05T11:31:15.758Z,97134.28
2023-04-05T11:32:17.795Z,97123.91
2023-04-05T11:33:37.978Z,97122.91
2023-04-05T11:34:42.144Z,97118.75
2023-04-05T11:36:00.513Z,97128.41
2023-04-05T11:37:02.323Z,97125.97
2023-04-05T11:38:05.428Z,97116.44
2023-04-05T11:39:19.426Z,97114.84
2023-04-05T11:40:24.883Z,97113.09
2023-04-05T11:41:33.114Z,97119.38
2023-04-05T11:42:34.929Z,97112.06
2023-04-05T11:43:38.710Z,97109.22
2023-04-05T11:44:44.701Z,97107.84
2023-04-05T11:45:48.013Z,97114.56
2023-04-05T11:46:50.216Z,97107.28
2023-04-05T11:47:52.276Z,97115.72
2023-04-05T11:48:54.294Z,97100.78
2023-04-05T11:49:56.178Z,97103.34
2023-04-05T11:50:58.218Z,97097.63
2023-04-05T11:52:09.898Z,97108.91
2023-04-05T11:53:12.952Z,97102.75
2023-04-05T11:54:33.359Z,97102.06
2023-04-05T11:55:35.239Z,97098.84
2023-04-05T11:56:37.891Z,97108.31
2023-04-05T11:57:39.662Z,97102.50
2023-04-05T11:58:41.989Z,97091.91
2023-04-05T11:59:44.201Z,97108.69
2023-04-05T12:00:46.362Z,97098.34
2023-04-05T12:01:57.994Z,97101.66
2023-04-05T12:02:59.905Z,97105.16
2023-04-05T12:04:01.944Z,97103.63
2023-04-05T12:05:03.948Z,97094.38
2023-04-05T12:06:06.488Z,97091.00
2023-04-05T12:07:08.753Z,97098.22
2023-04-05T12:08:10.869Z,97091.88
2023-04-05T12:09:12.738Z,97093.25
2023-04-05T12:10:16.356Z,97089.88
2023-04-05T12:11:24.291Z,97086.84
2023-04-05T12:12:26.283Z,97084.59
2023-04-05T12:13:32.649Z,97088.91
2023-04-05T12:14:34.402Z,97089.94
2023-04-05T12:15:41.195Z,97090.28
2023-04-05T12:16:49.339Z,97088.25
2023-04-05T12:17:52.994Z,97082.44
2023-04-05T12:18:56.102Z,97090.72
2023-04-05T12:19:57.936Z,97087.94
2023-04-05T12:21:00.511Z,97090.41
2023-04-05T12:22:02.489Z,97096.78
2023-04-05T12:23:04.896Z,97093.19
2023-04-05T12:24:06.854Z,97080.56
2023-04-05T12:25:09.309Z,97093.16
2023-04-05T12:26:11.423Z,97084.94
2023-04-05T12:27:13.249Z,97088.22
2023-04-05T12:28:15.062Z,97089.91